createdAt,value
2022-10-01T00:02:09.344Z,1.70
2022-10-01T00:04:37.948Z,1.90
2022-10-01T00:07:10.455Z,1.90
2022-10-01T00:09:39.990Z,1.80
2022-10-01T00:12:08.155Z,1.80
2022-10-01T00:14:39.398Z,1.60
2022-10-01T00:17:07.165Z,1.90
2022-10-01T00:19:34.943Z,1.90
2022-10-01T00:22:03.376Z,1.80
2022-10-01T00:24:31.886Z,1.70
2022-10-01T00:27:00.551Z,1.90
2022-10-01T00:29:28.698Z,1.80
2022-10-01T00:31:57.368Z,1.80
2022-10-01T00:34:25.311Z,1.80
2022-10-01T00:36:53.393Z,1.50
2022-10-01T00:39:22.435Z,1.40
2022-10-01T00:41:51.698Z,1.70
2022-10-01T00:44:39.753Z,1.70
2022-10-01T00:47:21.558Z,1.60
2022-10-01T00:50:00.298Z,1.30
2022-10-01T00:52:36.733Z,1.00
2022-10-01T00:55:32.446Z,1.30
2022-10-01T00:58:05.496Z,1.10
2022-10-01T01:00:37.018Z,1.60
2022-10-01T01:03:06.430Z,1.50
2022-10-01T01:05:34.426Z,1.70
2022-10-01T01:08:04.368Z,1.70
2022-10-01T01:10:54.428Z,1.70
2022-10-01T01:14:12.130Z,1.80
2022-10-01T01:16:59.265Z,1.50
2022-10-01T01:19:50.234Z,2.00
2022-10-01T01:22:25.568Z,1.60
2022-10-01T01:25:17.804Z,1.50
2022-10-01T01:28:31.884Z,1.60
2022-10-01T01:31:15.456Z,2.10
2022-10-01T01:36:25.628Z,1.60
2022-10-01T01:39:04.226Z,1.40
2022-10-01T01:41:41.354Z,1.20
2022-10-01T01:44:13.256Z,1.20
2022-10-01T01:46:48.676Z,1.10
2022-10-01T01:49:22.122Z,1.10
2022-10-01T01:52:16.191Z,1.40
2022-10-01T01:54:49.881Z,1.30
2022-10-01T01:57:19.892Z,1.60
2022-10-01T01:59:47.904Z,1.30
2022-10-01T02:02:27.574Z,1.20
2022-10-01T02:05:05.085Z,1.60
2022-10-01T02:08:03.667Z,1.30
2022-10-01T02:10:49.779Z,1.80
2022-10-01T02:13:48.273Z,1.40
2022-10-01T02:16:35.051Z,1.50
2022-10-01T02:19:24.741Z,1.30
2022-10-01T02:22:10.824Z,1.30
2022-10-01T02:24:59.599Z,1.30
2022-10-01T02:27:41.512Z,1.30
2022-10-01T02:30:12.333Z,1.10
2022-10-01T02:32:46.479Z,1.40
2022-10-01T02:37:53.028Z,1.40
2022-10-01T02:40:27.135Z,1.70
2022-10-01T02:43:11.486Z,1.80
2022-10-01T02:45:46.088Z,2.00
2022-10-01T02:48:18.112Z,1.80
2022-10-01T02:50:58.483Z,1.70
2022-10-01T02:53:42.369Z,1.50
2022-10-01T02:56:15.398Z,1.50
2022-10-01T02:58:43.725Z,1.60
2022-10-01T03:01:12.271Z,1.40
2022-10-01T03:03:43.374Z,1.40
2022-10-01T03:06:11.345Z,1.50
2022-10-01T03:08:39.051Z,1.60
2022-10-01T03:11:08.749Z,1.40
2022-10-01T03:13:37.275Z,1.70
2022-10-01T03:16:05.434Z,1.50
2022-10-01T03:18:33.321Z,1.40
2022-10-01T03:21:01.301Z,1.20
2022-10-01T03:23:29.247Z,1.60
2022-10-01T03:25:59.538Z,1.40
2022-10-01T03:28:27.779Z,1.20
2022-10-01T03:31:09.825Z,1.10
2022-10-01T03:33:41.327Z,1.30
2022-10-01T03:36:09.330Z,1.80
2022-10-01T03:38:37.344Z,1.90
2022-10-01T03:41:05.363Z,1.70
2022-10-01T03:43:33.281Z,1.40
2022-10-01T03:46:04.906Z,2.10
2022-10-01T03:48:33.895Z,1.60
2022-10-01T03:51:03.263Z,1.60
2022-10-01T03:53:33.193Z,1.20
2022-10-01T03:56:04.454Z,1.70
2022-10-01T03:58:34.117Z,1.50
2022-10-01T04:01:02.991Z,1.30
2022-10-01T04:03:30.849Z,1.90
2022-10-01T04:05:58.783Z,1.60
2022-10-01T04:08:26.497Z,1.70
2022-10-01T04:10:54.213Z,2.00
2022-10-01T04:13:22.372Z,1.50
2022-10-01T04:15:50.169Z,2.20
2022-10-01T04:18:21.669Z,1.90
2022-10-01T04:20:49.691Z,2.00
2022-10-01T04:23:18.223Z,0.90
2022-10-01T04:25:47.460Z,1.40
2022-10-01T04:28:17.272Z,1.40
2022-10-01T04:30:46.681Z,1.50
2022-10-01T04:33:17.129Z,1.60
2022-10-01T04:35:46.225Z,1.30
2022-10-01T04:38:17.426Z,1.70
2022-10-01T04:40:45.137Z,1.40
2022-10-01T04:43:13.422Z,1.30
2022-10-01T04:45:46.205Z,1.20
2022-10-01T04:48:14.559Z,1.30
2022-10-01T04:50:42.797Z,1.00
2022-10-01T04:53:10.814Z,1.10
2022-10-01T04:55:38.977Z,1.20
2022-10-01T04:58:06.659Z,1.60
2022-10-01T05:00:37.208Z,1.50
2022-10-01T05:03:05.089Z,1.60
2022-10-01T05:05:35.153Z,1.80
2022-10-01T05:08:03.484Z,2.70
2022-10-01T05:10:32.148Z,2.30
2022-10-01T05:13:02.749Z,1.70
2022-10-01T05:15:30.906Z,2.30
2022-10-01T05:17:58.769Z,2.30
2022-10-01T05:20:29.291Z,1.70
2022-10-01T05:22:59.662Z,2.20
2022-10-01T05:25:28.707Z,2.40
2022-10-01T05:28:05.408Z,1.80
2022-10-01T05:30:34.740Z,1.80
2022-10-01T05:33:05.315Z,2.80
2022-10-01T05:35:33.843Z,2.50
2022-10-01T05:38:03.367Z,2.70
2022-10-01T05:40:31.481Z,3.80
2022-10-01T05:43:00.392Z,2.90
2022-10-01T05:45:31.569Z,2.90
2022-10-01T05:48:06.134Z,2.80
2022-10-01T05:50:40.394Z,3.10
2022-10-01T05:53:12.011Z,3.30
2022-10-01T05:55:43.581Z,1.50
2022-10-01T05:58:14.999Z,1.70
2022-10-01T06:00:45.549Z,2.10
2022-10-01T06:03:15.296Z,2.20
2022-10-01T06:05:45.681Z,1.70
2022-10-01T06:08:15.014Z,2.60
2022-10-01T06:10:43.847Z,2.30
2022-10-01T06:13:17.954Z,1.90
2022-10-01T06:15:48.077Z,2.00
2022-10-01T06:18:15.961Z,2.00
2022-10-01T06:20:44.029Z,2.00
2022-10-01T06:23:15.007Z,1.60
2022-10-01T06:25:44.749Z,1.70
2022-10-01T06:28:14.889Z,1.60
2022-10-01T06:30:43.977Z,1.60
2022-10-01T06:33:18.417Z,1.40
2022-10-01T06:35:52.497Z,1.30
2022-10-01T06:38:24.938Z,1.40
2022-10-01T06:40:54.508Z,1.30
2022-10-01T06:43:27.601Z,2.00
2022-10-01T06:46:01.782Z,2.00
2022-10-01T06:48:31.141Z,1.80
2022-10-01T06:51:00.815Z,1.90
2022-10-01T06:53:30.218Z,1.60
2022-10-01T06:56:04.686Z,2.00
2022-10-01T06:58:32.628Z,2.20
2022-10-01T07:01:03.193Z,2.10
2022-10-01T07:03:31.880Z,2.10
2022-10-01T07:06:05.802Z,2.50
2022-10-01T07:08:34.348Z,2.70
2022-10-01T07:11:03.079Z,3.00
2022-10-01T07:13:31.254Z,2.40
2022-10-01T07:15:58.991Z,3.10
2022-10-01T07:18:27.198Z,3.20
2022-10-01T07:21:01.744Z,4.50
2022-10-01T07:23:29.786Z,3.60
2022-10-01T07:25:57.962Z,3.90
2022-10-01T07:28:31.251Z,3.40
2022-10-01T07:31:06.854Z,3.50
2022-10-01T07:33:34.793Z,3.30
2022-10-01T07:36:10.775Z,3.20
2022-10-01T07:38:40.282Z,4.20
2022-10-01T07:41:07.923Z,3.40
2022-10-01T07:43:36.687Z,3.00
2022-10-01T07:46:05.843Z,3.50
2022-10-01T07:48:33.828Z,3.50
2022-10-01T07:51:02.037Z,3.10
2022-10-01T07:53:32.433Z,3.90
2022-10-01T07:56:02.366Z,1.90
2022-10-01T07:58:30.757Z,4.00
2022-10-01T08:01:08.543Z,4.30
2022-10-01T08:03:36.535Z,4.70
2022-10-01T08:06:06.852Z,7.30
2022-10-01T08:08:35.039Z,5.60
2022-10-01T08:11:06.814Z,4.90
2022-10-01T08:13:35.265Z,5.00
2022-10-01T08:16:09.759Z,3.10
2022-10-01T08:18:40.570Z,2.70
2022-10-01T08:21:09.801Z,6.20
2022-10-01T08:23:37.573Z,3.30
2022-10-01T08:26:08.953Z,4.30
2022-10-01T08:28:36.914Z,3.80
2022-10-01T08:31:09.050Z,4.60
2022-10-01T08:33:38.518Z,5.00
2022-10-01T08:36:10.590Z,5.10
2022-10-01T08:38:41.001Z,4.40
2022-10-01T08:41:40.519Z,3.10
2022-10-01T08:44:21.836Z,2.90
2022-10-01T08:46:52.294Z,2.80
2022-10-01T08:49:27.223Z,2.40
2022-10-01T08:52:31.834Z,2.40
2022-10-01T08:55:12.444Z,2.20
2022-10-01T08:57:48.033Z,2.10
2022-10-01T09:00:19.391Z,2.20
2022-10-01T09:02:48.220Z,1.90
2022-10-01T09:05:36.766Z,1.00
2022-10-01T09:08:57.973Z,2.00
2022-10-01T09:11:47.384Z,2.50
2022-10-01T09:15:03.651Z,2.50
2022-10-01T09:17:57.616Z,2.60
2022-10-01T09:20:47.829Z,1.90
2022-10-01T09:23:26.690Z,1.30
2022-10-01T09:25:57.274Z,1.50
2022-10-01T09:28:33.434Z,1.80
2022-10-01T09:31:45.169Z,1.60
2022-10-01T09:34:28.065Z,1.60
2022-10-01T09:37:27.088Z,2.30
2022-10-01T09:40:23.906Z,2.10
2022-10-01T09:42:52.302Z,2.00
2022-10-01T09:45:23.731Z,1.60
2022-10-01T09:47:57.581Z,3.10
2022-10-01T09:50:44.241Z,1.70
2022-10-01T09:53:21.914Z,1.60
2022-10-01T09:55:58.698Z,1.70
2022-10-01T09:58:29.675Z,1.60
2022-10-01T10:00:57.755Z,1.70
2022-10-01T10:03:31.389Z,1.20
2022-10-01T10:06:00.332Z,1.60
2022-10-01T10:08:33.567Z,1.60
2022-10-01T10:11:11.854Z,1.10
2022-10-01T10:13:50.024Z,2.40
2022-10-01T10:16:29.413Z,1.90
2022-10-01T10:19:11.331Z,2.90
2022-10-01T10:21:56.668Z,2.00
2022-10-01T10:24:34.069Z,1.00
2022-10-01T10:27:26.687Z,1.70
2022-10-01T10:30:20.284Z,2.30
2022-10-01T10:32:49.174Z,2.40
2022-10-01T10:35:26.299Z,2.50
2022-10-01T10:37:59.818Z,2.00
2022-10-01T10:40:41.995Z,2.20
2022-10-01T10:43:22.743Z,1.70
2022-10-01T10:45:56.530Z,1.50
2022-10-01T10:48:35.996Z,1.50
2022-10-01T10:51:06.449Z,1.30
2022-10-01T10:53:49.202Z,1.60
2022-10-01T10:56:23.095Z,1.40
2022-10-01T10:58:56.958Z,1.30
2022-10-01T11:01:29.607Z,1.60
2022-10-01T11:04:01.132Z,1.20
2022-10-01T11:06:30.397Z,1.40
2022-10-01T11:09:11.694Z,1.60
2022-10-01T11:11:48.633Z,1.30
2022-10-01T11:14:28.490Z,1.40
2022-10-01T11:17:30.020Z,1.60
2022-10-01T11:20:36.202Z,1.20
2022-10-01T11:23:47.779Z,1.60
2022-10-01T11:27:04.480Z,2.10
2022-10-01T11:30:15.384Z,1.40
2022-10-01T11:33:15.565Z,1.50
2022-10-01T11:36:06.878Z,1.70
2022-10-01T11:39:03.042Z,1.70
2022-10-01T11:41:40.652Z,1.90
2022-10-01T11:44:45.174Z,1.40
2022-10-01T11:47:25.963Z,1.50
2022-10-01T11:50:08.569Z,2.10
2022-10-01T11:52:52.836Z,2.10
2022-10-01T11:56:01.422Z,2.20
2022-10-01T11:58:52.671Z,1.90
2022-10-01T12:01:50.810Z,2.50
2022-10-01T12:04:38.489Z,2.60
2022-10-01T12:07:39.076Z,2.40
2022-10-01T12:10:47.531Z,2.40
2022-10-01T12:13:28.109Z,2.40
2022-10-01T12:16:36.415Z,2.40
2022-10-01T12:19:21.771Z,2.50
2022-10-01T12:22:12.869Z,2.40
2022-10-01T12:24:45.301Z,2.50
2022-10-01T12:27:54.130Z,2.20
2022-10-01T12:30:29.208Z,1.60
2022-10-01T12:33:43.512Z,2.10
2022-10-01T12:36:25.291Z,1.60
2022-10-01T12:39:25.638Z,2.30
2022-10-01T12:42:21.558Z,1.70
2022-10-01T12:45:33.495Z,1.20
2022-10-01T12:48:38.132Z,1.60
2022-10-01T12:51:40.451Z,2.10
2022-10-01T12:54:35.004Z,1.10
2022-10-01T12:57:11.850Z,1.10
2022-10-01T12:59:45.271Z,1.30
2022-10-01T13:02:53.481Z,1.10
2022-10-01T13:05:39.389Z,1.10
2022-10-01T13:08:16.794Z,0.80
2022-10-01T13:10:57.782Z,1.00
2022-10-01T13:13:35.150Z,1.10
2022-10-01T13:16:21.937Z,1.00
2022-10-01T13:19:20.073Z,1.40
2022-10-01T13:22:18.477Z,0.90
2022-10-01T13:25:16.443Z,1.10
2022-10-01T13:28:31.607Z,1.30
2022-10-01T13:31:12.545Z,1.70
2022-10-01T13:33:41.560Z,1.50
2022-10-01T13:36:11.239Z,1.40
2022-10-01T13:38:43.935Z,1.70
2022-10-01T13:41:33.727Z,2.40
2022-10-01T13:44:36.209Z,2.80
2022-10-01T13:47:07.973Z,2.50
2022-10-01T13:49:38.780Z,3.60
2022-10-01T13:52:06.975Z,3.50
2022-10-01T13:54:47.540Z,2.90
2022-10-01T13:57:29.596Z,3.40
2022-10-01T14:00:22.181Z,2.80
2022-10-01T14:03:28.872Z,2.80
2022-10-01T14:05:59.503Z,2.00
2022-10-01T14:09:10.928Z,2.50
2022-10-01T14:12:04.277Z,2.50
2022-10-01T14:14:55.422Z,3.00
2022-10-01T14:17:30.524Z,2.80
2022-10-01T14:20:01.237Z,2.80
2022-10-01T14:22:54.368Z,2.30
2022-10-01T14:25:42.794Z,2.00
2022-10-01T14:28:29.008Z,2.70
2022-10-01T14:31:23.980Z,1.90
2022-10-01T14:34:39.064Z,1.90
2022-10-01T14:37:16.211Z,2.30
2022-10-01T14:39:45.202Z,1.80
2022-10-01T14:42:18.162Z,1.80
2022-10-01T14:44:49.383Z,1.90
2022-10-01T14:47:21.036Z,2.50
2022-10-01T14:49:50.679Z,2.40
2022-10-01T14:52:31.648Z,2.20
2022-10-01T14:55:23.122Z,2.30
2022-10-01T14:57:56.205Z,2.20
2022-10-01T15:00:29.385Z,1.40
2022-10-01T15:03:20.863Z,1.70
2022-10-01T15:05:50.781Z,2.10
2022-10-01T15:08:36.386Z,2.30
2022-10-01T15:11:28.443Z,2.30
2022-10-01T15:14:10.798Z,2.10
2022-10-01T15:16:39.170Z,2.40
2022-10-01T15:19:13.865Z,2.90
2022-10-01T15:21:54.994Z,7.70
2022-10-01T15:24:41.433Z,17.10
2022-10-01T15:27:13.779Z,4.60
2022-10-01T15:29:46.978Z,4.90
2022-10-01T15:32:23.004Z,3.90
2022-10-01T15:35:04.113Z,2.00
2022-10-01T15:37:36.054Z,1.60
2022-10-01T15:40:34.983Z,2.50
2022-10-01T15:43:32.933Z,2.10
2022-10-01T15:46:17.773Z,1.90
2022-10-01T15:48:47.399Z,1.80
2022-10-01T15:51:26.916Z,2.10
2022-10-01T15:54:08.623Z,2.60
2022-10-01T15:56:37.831Z,2.60
2022-10-01T15:59:20.260Z,3.50
2022-10-01T16:01:48.205Z,2.80
2022-10-01T16:04:16.007Z,1.70
2022-10-01T16:06:50.240Z,2.30
2022-10-01T16:09:31.222Z,1.90
2022-10-01T16:12:23.765Z,2.30
2022-10-01T16:15:04.986Z,2.20
2022-10-01T16:17:38.654Z,2.30
2022-10-01T16:20:15.597Z,2.00
2022-10-01T16:22:44.643Z,1.90
2022-10-01T16:25:25.124Z,1.90
2022-10-01T16:28:19.460Z,1.70
2022-10-01T16:30:51.648Z,1.90
2022-10-01T16:33:20.694Z,1.80
2022-10-01T16:35:49.541Z,2.60
2022-10-01T16:38:17.216Z,1.30
2022-10-01T16:40:49.454Z,1.80
2022-10-01T16:43:24.344Z,1.80
2022-10-01T16:45:53.790Z,1.80
2022-10-01T16:48:23.810Z,2.10
2022-10-01T16:50:54.006Z,1.60
2022-10-01T16:53:24.882Z,1.60
2022-10-01T16:55:55.173Z,1.50
2022-10-01T16:58:24.079Z,1.40
2022-10-01T17:00:52.483Z,1.80
2022-10-01T17:03:23.266Z,1.80
2022-10-01T17:05:51.344Z,1.90
2022-10-01T17:08:19.146Z,1.30
2022-10-01T17:10:57.339Z,2.20
2022-10-01T17:13:29.225Z,1.70
2022-10-01T17:15:59.187Z,1.70
2022-10-01T17:18:29.034Z,2.10
2022-10-01T17:20:57.024Z,2.10
2022-10-01T17:23:25.321Z,2.20
2022-10-01T17:25:53.949Z,2.10
2022-10-01T17:28:24.066Z,2.40
2022-10-01T17:30:56.213Z,1.70
2022-10-01T17:33:28.376Z,2.20
2022-10-01T17:35:56.597Z,2.30
2022-10-01T17:38:25.267Z,2.00
2022-10-01T17:40:56.700Z,1.90
2022-10-01T17:43:25.438Z,2.10
2022-10-01T17:46:00.589Z,2.10
2022-10-01T17:48:30.113Z,1.90
2022-10-01T17:51:07.353Z,2.90
2022-10-01T17:53:42.157Z,3.00
2022-10-01T17:56:18.560Z,2.50
2022-10-01T17:58:48.362Z,3.20
2022-10-01T18:01:22.364Z,2.70
2022-10-01T18:03:55.744Z,2.00
2022-10-01T18:06:25.415Z,1.80
2022-10-01T18:08:56.207Z,1.30
2022-10-01T18:11:29.199Z,1.90
2022-10-01T18:13:58.863Z,1.50
2022-10-01T18:16:27.653Z,1.90
2022-10-01T18:21:51.661Z,1.70
2022-10-01T18:24:19.980Z,2.00
2022-10-01T18:26:48.266Z,2.00
2022-10-01T18:29:26.630Z,1.70
2022-10-01T18:32:15.989Z,1.90
2022-10-01T18:34:58.091Z,1.70
2022-10-01T18:38:09.472Z,1.40
2022-10-01T18:40:43.842Z,1.60
2022-10-01T18:43:23.742Z,1.60
2022-10-01T18:46:55.245Z,1.60
2022-10-01T18:49:42.407Z,1.50
2022-10-01T18:52:46.375Z,1.60
2022-10-01T18:55:31.249Z,1.70
2022-10-01T18:58:24.412Z,1.80
2022-10-01T19:01:52.232Z,1.70
2022-10-01T19:04:29.029Z,1.80
2022-10-01T19:07:33.864Z,2.10
2022-10-01T19:10:40.445Z,3.10
2022-10-01T19:13:43.352Z,4.00
2022-10-01T19:19:07.273Z,4.20
2022-10-01T19:21:38.926Z,4.40
2022-10-01T19:24:09.083Z,4.60
2022-10-01T19:26:42.575Z,4.90
2022-10-01T19:29:37.672Z,5.60
2022-10-01T19:32:19.706Z,4.30
2022-10-01T19:35:02.472Z,5.20
2022-10-01T19:37:45.108Z,5.10
2022-10-01T19:40:35.329Z,3.80
2022-10-01T19:43:07.992Z,4.10
2022-10-01T19:46:19.363Z,5.80
2022-10-01T19:49:25.845Z,5.20
2022-10-01T19:52:11.308Z,3.50
2022-10-01T19:54:49.136Z,4.10
2022-10-01T19:57:30.610Z,4.50
2022-10-01T20:00:10.522Z,7.10
2022-10-01T20:02:50.539Z,8.00
2022-10-01T20:05:41.716Z,7.10
2022-10-01T20:08:40.809Z,7.70
2022-10-01T20:11:30.869Z,11.90
2022-10-01T20:15:06.876Z,15.40
2022-10-01T20:18:13.130Z,9.60
2022-10-01T20:23:33.717Z,6.00
2022-10-01T20:26:40.845Z,4.10
2022-10-01T20:29:19.305Z,5.30
2022-10-01T20:32:06.751Z,7.00
2022-10-01T20:35:01.641Z,7.00
2022-10-01T20:38:04.121Z,4.10
2022-10-01T20:40:55.569Z,4.10
2022-10-01T20:43:58.913Z,4.10
2022-10-01T20:46:35.464Z,4.00
2022-10-01T20:49:28.029Z,4.10
2022-10-01T20:52:29.823Z,3.20
2022-10-01T20:55:13.354Z,3.50
2022-10-01T20:57:55.798Z,2.90
2022-10-01T21:00:27.210Z,3.10
2022-10-01T21:03:25.393Z,3.60
2022-10-01T21:06:25.503Z,2.50
2022-10-01T21:09:21.860Z,2.50
2022-10-01T21:12:02.213Z,2.50
2022-10-01T21:15:01.905Z,2.00
2022-10-01T21:17:42.193Z,2.10
2022-10-01T21:20:28.678Z,2.50
2022-10-01T21:23:46.293Z,2.20
2022-10-01T21:26:42.346Z,2.10
2022-10-01T21:30:03.532Z,2.40
2022-10-01T21:33:02.031Z,2.30
2022-10-01T21:36:06.070Z,2.50
2022-10-01T21:39:31.910Z,2.20
2022-10-01T21:42:27.289Z,1.90
2022-10-01T21:45:30.234Z,2.00
2022-10-01T21:48:30.341Z,2.70
2022-10-01T21:51:24.451Z,2.60
2022-10-01T21:54:28.617Z,2.70
2022-10-01T21:57:36.358Z,3.20
2022-10-01T22:00:22.407Z,3.20
2022-10-01T22:03:25.217Z,2.50
2022-10-01T22:06:33.894Z,2.80
2022-10-01T22:09:25.047Z,2.40
2022-10-01T22:12:00.281Z,2.60
2022-10-01T22:14:30.334Z,2.80
2022-10-01T22:17:24.561Z,2.50
2022-10-01T22:20:02.248Z,2.50
2022-10-01T22:22:38.572Z,2.90
2022-10-01T22:25:09.062Z,3.00
2022-10-01T22:27:52.793Z,3.00
2022-10-01T22:30:29.110Z,3.50
2022-10-01T22:33:24.582Z,3.40
2022-10-01T22:36:15.870Z,3.80
2022-10-01T22:38:54.201Z,3.30
2022-10-01T22:41:34.894Z,3.30
2022-10-01T22:44:15.805Z,5.00
2022-10-01T22:47:06.935Z,6.40
2022-10-01T22:49:41.658Z,6.00
2022-10-01T22:52:32.400Z,4.80
2022-10-01T22:55:30.977Z,3.90
2022-10-01T22:58:27.378Z,3.30
2022-10-01T23:01:37.290Z,2.80
2022-10-01T23:04:35.101Z,3.10
2022-10-01T23:07:33.798Z,2.70
2022-10-01T23:10:20.891Z,2.70
2022-10-01T23:13:09.428Z,2.30
2022-10-01T23:16:02.989Z,2.10
2022-10-01T23:19:00.401Z,2.40
2022-10-01T23:21:46.036Z,2.00
2022-10-01T23:24:25.630Z,2.00
2022-10-01T23:27:58.645Z,1.90
2022-10-01T23:31:02.110Z,1.80
2022-10-01T23:33:51.577Z,2.40
2022-10-01T23:36:49.298Z,1.90
2022-10-01T23:39:17.624Z,1.70
2022-10-01T23:42:21.545Z,1.60
2022-10-01T23:45:24.269Z,1.90
2022-10-01T23:48:14.553Z,1.70
2022-10-01T23:51:18.936Z,1.90
2022-10-01T23:54:06.997Z,2.30
2022-10-01T23:57:15.941Z,2.20
2022-10-01T23:59:53.475Z,1.60
